Kissee Mills, Missouri
Current Conditions -  °F | °C
As of 1:45 PM on Saturday 25 Oct 2014 (Local Time) from KBBG Reporting Station
Clear Clear  
Wind Chill: 82°   Ceiling: Unl
Heat Index: 83°   Visibility: 10mi
Dew Point: 63°   Wind: 6mph
Humidity: 51%   Direction: 310°NW
Pressure: 30.07"   Gusts: NA
Location:  36.68°N, 93.05°W
Report Text: KBBG 251845Z 31005KT 10SM SKC 28/17 A3007
Loading
Personal Weather Stations






























Interactive Weather Map
Tropical Storm Tracking
New forecast layout! Learn more

10-Day Weather Forecast

Advertisements
Track Severe Weather on mobile